Time;durP1;ratioP1;P1;durP2;ratioP2;P2;SDS_P1;SDS_P2;PMS_P1;PMS_P2;Temp;Humidity;BMP_temperature;BMP_pressure;BME280_temperature;BME280_humidity;BME280_pressure;Samples;Min_cycle;Max_cycle;Signal;HPM_P1;HPM_P2
2022/07/24 00:01:09;;;;;;;4.18;1.30;;;;;;;;;;4952326;28;20126;-62
2022/07/24 00:03:36;;;;;;;4.97;1.35;;;;;;;;;;4969249;28;20423;-62
2022/07/24 00:06:06;;;;;;;6.28;1.33;;;;;;;;;;4970226;28;20085;-64
2022/07/24 00:08:32;;;;;;;4.75;1.38;;;;;;;;;;4968490;28;20074;-63
2022/07/24 00:10:59;;;;;;;3.72;1.42;;;;;;;;;;4971407;28;20169;-63
2022/07/24 00:13:25;;;;;;;7.07;1.50;;;;;;;;;;4968740;28;20042;-61
2022/07/24 00:15:52;;;;;;;5.50;1.38;;;;;;;;;;4970484;28;20381;-62
2022/07/24 00:18:19;;;;;;;3.25;1.23;;;;;;;;;;4970013;28;20087;-62
2022/07/24 00:20:46;;;;;;;2.80;1.20;;;;;;;;;;4970360;28;20399;-62
2022/07/24 00:23:12;;;;;;;3.58;1.35;;;;;;;;;;4968469;28;20515;-62
2022/07/24 00:25:39;;;;;;;5.00;1.38;;;;;;;;;;4968392;28;20081;-63
2022/07/24 00:28:05;;;;;;;4.47;1.33;;;;;;;;;;4970520;28;20103;-62
2022/07/24 00:30:32;;;;;;;3.92;1.40;;;;;;;;;;4969537;28;20046;-63
2022/07/24 00:32:59;;;;;;;4.28;1.55;;;;;;;;;;4969402;28;20113;-63
2022/07/24 00:35:25;;;;;;;4.47;1.50;;;;;;;;;;4969150;28;20555;-62
2022/07/24 00:37:53;;;;;;;6.10;1.95;;;;;;;;;;4971306;28;20046;-61
2022/07/24 00:40:19;;;;;;;4.05;1.30;;;;;;;;;;4970690;28;20051;-60
2022/07/24 00:42:46;;;;;;;6.22;1.55;;;;;;;;;;4968925;28;20073;-62
2022/07/24 00:45:13;;;;;;;4.70;1.40;;;;;;;;;;4972282;28;20749;-61
2022/07/24 00:47:39;;;;;;;5.07;1.20;;;;;;;;;;4953206;28;20173;-61
2022/07/24 00:50:06;;;;;;;5.03;1.52;;;;;;;;;;4970884;28;20113;-63
2022/07/24 00:52:33;;;;;;;4.20;1.10;;;;;;;;;;4969599;28;20039;-62
2022/07/24 00:54:59;;;;;;;7.97;1.73;;;;;;;;;;4968990;28;20046;-62
2022/07/24 00:57:26;;;;;;;4.05;1.23;;;;;;;;;;4968764;28;20953;-62
2022/07/24 00:59:53;;;;;;;5.65;1.48;;;;;;;;;;4971380;28;20042;-61
2022/07/24 01:02:19;;;;;;;5.68;1.38;;;;;;;;;;4970785;28;20107;-64
2022/07/24 01:04:46;;;;;;;4.90;1.40;;;;;;;;;;4967783;28;20049;-62
2022/07/24 01:07:13;;;;;;;4.70;1.35;;;;;;;;;;4969902;28;20042;-60
2022/07/24 01:09:40;;;;;;;4.90;1.38;;;;;;;;;;4966739;28;20042;-59
2022/07/24 01:12:06;;;;;;;6.78;1.88;;;;;;;;;;4968414;28;20688;-61
2022/07/24 01:14:33;;;;;;;5.95;1.55;;;;;;;;;;4971755;28;20094;-62
2022/07/24 01:17:00;;;;;;;4.63;1.65;;;;;;;;;;4970801;28;20050;-61
2022/07/24 01:19:26;;;;;;;5.47;1.40;;;;;;;;;;4968203;28;20042;-62
2022/07/24 01:21:54;;;;;;;4.95;1.38;;;;;;;;;;4968996;28;20046;-62
2022/07/24 01:24:21;;;;;;;8.98;1.80;;;;;;;;;;4969794;28;20985;-62
2022/07/24 01:26:48;;;;;;;3.33;1.20;;;;;;;;;;4969788;28;20051;-63
2022/07/24 01:29:15;;;;;;;5.22;1.50;;;;;;;;;;4970006;28;20039;-62
2022/07/24 01:31:42;;;;;;;5.05;1.40;;;;;;;;;;4965947;28;20046;-62
2022/07/24 01:34:08;;;;;;;5.28;1.50;;;;;;;;;;4968836;28;20039;-62
2022/07/24 01:36:35;;;;;;;2.80;1.30;;;;;;;;;;4967866;28;20064;-61
2022/07/24 01:39:01;;;;;;;3.63;1.30;;;;;;;;;;4968692;28;20121;-58
2022/07/24 01:41:28;;;;;;;3.42;1.20;;;;;;;;;;4968163;28;20042;-61
2022/07/24 01:43:55;;;;;;;5.10;1.70;;;;;;;;;;4967680;28;20920;-59
2022/07/24 01:46:21;;;;;;;4.25;1.52;;;;;;;;;;4949890;28;20038;-61
2022/07/24 01:48:48;;;;;;;6.30;1.40;;;;;;;;;;4967942;28;20038;-61
2022/07/24 01:51:14;;;;;;;6.55;1.55;;;;;;;;;;4969791;28;20042;-59
2022/07/24 01:53:41;;;;;;;5.32;2.10;;;;;;;;;;4967290;28;20045;-60
2022/07/24 01:56:08;;;;;;;4.85;1.58;;;;;;;;;;4967315;28;20096;-60
2022/07/24 01:58:34;;;;;;;3.95;1.60;;;;;;;;;;4966337;28;20081;-58
2022/07/24 02:01:01;;;;;;;6.57;1.92;;;;;;;;;;4965941;28;21211;-63
2022/07/24 02:03:27;;;;;;;6.75;1.98;;;;;;;;;;4968144;28;20113;-62
2022/07/24 02:05:54;;;;;;;9.40;2.00;;;;;;;;;;4967124;28;20039;-61
2022/07/24 02:08:21;;;;;;;6.05;2.25;;;;;;;;;;4969579;28;20030;-60
2022/07/24 02:10:47;;;;;;;4.30;1.75;;;;;;;;;;4969686;28;20046;-62
2022/07/24 02:13:14;;;;;;;4.50;1.90;;;;;;;;;;4968868;28;20507;-61
2022/07/24 02:15:40;;;;;;;5.22;1.67;;;;;;;;;;4967443;28;20185;-60
2022/07/24 02:18:07;;;;;;;7.15;2.03;;;;;;;;;;4969327;28;20054;-60
2022/07/24 02:20:33;;;;;;;6.68;1.75;;;;;;;;;;4969805;28;20039;-61
2022/07/24 02:23:00;;;;;;;4.90;1.80;;;;;;;;;;4969691;28;20045;-59
2022/07/24 02:25:27;;;;;;;4.32;1.63;;;;;;;;;;4969824;28;20402;-60
2022/07/24 02:27:53;;;;;;;5.43;1.73;;;;;;;;;;4968961;28;20042;-59
2022/07/24 02:30:21;;;;;;;6.78;1.80;;;;;;;;;;4969137;28;20038;-59
2022/07/24 02:32:47;;;;;;;3.88;1.80;;;;;;;;;;4964689;28;20071;-64
2022/07/24 02:35:14;;;;;;;5.63;1.88;;;;;;;;;;4966416;28;21730;-61
2022/07/24 02:37:42;;;;;;;3.90;1.70;;;;;;;;;;4967107;28;20151;-62
2022/07/24 02:40:09;;;;;;;4.55;1.60;;;;;;;;;;4967944;28;20057;-60
2022/07/24 02:42:37;;;;;;;3.90;1.70;;;;;;;;;;4949233;28;20039;-58
2022/07/24 02:45:04;;;;;;;6.93;1.73;;;;;;;;;;4968884;28;20097;-60
2022/07/24 02:47:31;;;;;;;6.30;1.77;;;;;;;;;;4966159;28;20042;-58
2022/07/24 02:49:57;;;;;;;6.10;2.05;;;;;;;;;;4967885;28;20035;-61
2022/07/24 02:52:24;;;;;;;5.18;1.83;;;;;;;;;;4965868;28;20062;-60
2022/07/24 02:54:50;;;;;;;5.15;2.03;;;;;;;;;;4968441;28;20061;-60
2022/07/24 02:57:17;;;;;;;7.00;1.70;;;;;;;;;;4966812;28;20089;-60
2022/07/24 02:59:52;;;;;;;7.10;1.90;;;;;;;;;;4965930;28;20078;-60
2022/07/24 03:02:19;;;;;;;4.50;1.60;;;;;;;;;;4936643;28;20232;-61
2022/07/24 03:04:45;;;;;;;10.35;2.30;;;;;;;;;;4967669;28;20886;-60
2022/07/24 03:07:12;;;;;;;5.53;2.03;;;;;;;;;;4968744;28;20039;-61
2022/07/24 03:09:38;;;;;;;5.50;1.67;;;;;;;;;;4967263;28;20062;-61
2022/07/24 03:12:05;;;;;;;10.00;3.17;;;;;;;;;;4966556;28;20049;-60
2022/07/24 03:14:32;;;;;;;4.75;1.90;;;;;;;;;;4968581;28;20046;-60
2022/07/24 03:16:58;;;;;;;7.60;2.15;;;;;;;;;;4968267;28;20046;-60
2022/07/24 03:19:25;;;;;;;6.45;2.05;;;;;;;;;;4967678;28;20103;-60
2022/07/24 03:21:51;;;;;;;5.47;1.98;;;;;;;;;;4966318;28;20094;-63
2022/07/24 03:24:18;;;;;;;4.18;2.00;;;;;;;;;;4969158;28;20045;-58
2022/07/24 03:26:45;;;;;;;6.35;2.20;;;;;;;;;;4966408;28;20117;-59
2022/07/24 03:29:11;;;;;;;6.40;2.05;;;;;;;;;;4966092;28;20046;-60
2022/07/24 03:31:38;;;;;;;4.10;2.08;;;;;;;;;;4963457;28;20055;-60
2022/07/24 03:34:05;;;;;;;6.32;2.15;;;;;;;;;;4965078;28;20042;-61
2022/07/24 03:36:32;;;;;;;6.68;2.10;;;;;;;;;;4964092;28;20043;-61
2022/07/24 03:38:59;;;;;;;6.55;1.95;;;;;;;;;;4966215;28;20059;-61
2022/07/24 03:41:25;;;;;;;6.20;2.10;;;;;;;;;;4948233;28;20981;-60
2022/07/24 03:43:52;;;;;;;7.25;2.22;;;;;;;;;;4965695;28;20065;-60
2022/07/24 03:46:19;;;;;;;7.13;1.60;;;;;;;;;;4967183;28;20038;-62
2022/07/24 03:48:45;;;;;;;4.38;1.88;;;;;;;;;;4967170;28;20575;-61
2022/07/24 03:51:12;;;;;;;5.10;1.90;;;;;;;;;;4968059;28;20047;-62
2022/07/24 03:53:38;;;;;;;5.18;2.00;;;;;;;;;;4967358;28;20062;-62
2022/07/24 03:56:06;;;;;;;4.82;2.00;;;;;;;;;;4968395;28;20045;-62
2022/07/24 03:58:32;;;;;;;5.00;1.60;;;;;;;;;;4967995;28;20050;-61
2022/07/24 04:00:59;;;;;;;7.50;2.22;;;;;;;;;;4967507;28;20102;-59
2022/07/24 04:03:26;;;;;;;7.00;2.35;;;;;;;;;;4965413;28;20061;-59
2022/07/24 04:05:52;;;;;;;6.40;2.10;;;;;;;;;;4966890;28;20045;-61
2022/07/24 04:08:19;;;;;;;8.18;2.58;;;;;;;;;;4967951;28;20053;-61
2022/07/24 04:10:46;;;;;;;4.55;2.28;;;;;;;;;;4949801;28;20042;-60
2022/07/24 04:13:12;;;;;;;6.75;2.28;;;;;;;;;;4967884;28;20129;-60
2022/07/24 04:15:39;;;;;;;6.07;2.20;;;;;;;;;;4962814;28;20057;-66
2022/07/24 04:18:05;;;;;;;5.50;2.08;;;;;;;;;;4965163;28;20042;-66
2022/07/24 04:20:32;;;;;;;6.00;2.40;;;;;;;;;;4966730;28;20205;-66
2022/07/24 04:22:58;;;;;;;3.80;1.80;;;;;;;;;;4964909;28;20058;-66
2022/07/24 04:25:25;;;;;;;4.75;2.20;;;;;;;;;;4964625;28;20049;-66
2022/07/24 04:27:52;;;;;;;7.80;2.38;;;;;;;;;;4965807;28;20038;-67
2022/07/24 04:30:18;;;;;;;6.53;2.40;;;;;;;;;;4964969;28;20039;-66
2022/07/24 04:32:45;;;;;;;7.45;2.97;;;;;;;;;;4963455;28;20069;-66
2022/07/24 04:35:11;;;;;;;6.68;2.80;;;;;;;;;;4964235;28;20038;-67
2022/07/24 04:37:38;;;;;;;8.18;2.75;;;;;;;;;;4964631;28;20055;-67
2022/07/24 04:40:05;;;;;;;7.70;2.20;;;;;;;;;;4964420;28;20050;-66
2022/07/24 04:42:31;;;;;;;6.38;2.30;;;;;;;;;;4964260;28;20181;-63
2022/07/24 04:44:58;;;;;;;6.18;2.08;;;;;;;;;;4951111;28;20039;-62
2022/07/24 04:47:24;;;;;;;7.55;2.20;;;;;;;;;;4965960;28;20038;-62
2022/07/24 04:49:51;;;;;;;5.53;2.25;;;;;;;;;;4968806;28;20047;-62
2022/07/24 04:52:18;;;;;;;5.35;2.15;;;;;;;;;;4955002;28;20042;-62
2022/07/24 04:54:44;;;;;;;7.75;2.25;;;;;;;;;;4967871;28;20063;-62
2022/07/24 04:57:11;;;;;;;5.15;2.60;;;;;;;;;;4968334;28;20050;-62
2022/07/24 04:59:37;;;;;;;4.57;2.10;;;;;;;;;;4966973;28;20042;-61
2022/07/24 05:02:04;;;;;;;5.80;2.55;;;;;;;;;;4967859;28;20031;-61
2022/07/24 05:04:30;;;;;;;5.63;2.22;;;;;;;;;;4967386;28;20122;-61
2022/07/24 05:06:57;;;;;;;6.18;2.25;;;;;;;;;;4970196;28;20085;-62
2022/07/24 05:09:24;;;;;;;5.35;2.10;;;;;;;;;;4968745;28;20150;-62
2022/07/24 05:11:50;;;;;;;5.28;2.33;;;;;;;;;;4967305;28;20042;-62
2022/07/24 05:14:17;;;;;;;7.20;2.00;;;;;;;;;;4967536;28;20030;-62
2022/07/24 05:16:43;;;;;;;12.80;2.30;;;;;;;;;;4966872;28;20053;-61
2022/07/24 05:19:10;;;;;;;5.38;2.63;;;;;;;;;;4968131;28;20042;-61
2022/07/24 05:21:36;;;;;;;5.78;2.60;;;;;;;;;;4966153;28;20039;-62
2022/07/24 05:24:03;;;;;;;9.00;2.72;;;;;;;;;;4969169;28;20041;-61
2022/07/24 05:26:31;;;;;;;4.65;2.10;;;;;;;;;;4965871;28;20074;-61
2022/07/24 05:28:59;;;;;;;5.05;2.40;;;;;;;;;;4968505;28;20034;-60
2022/07/24 05:31:25;;;;;;;7.10;2.60;;;;;;;;;;4967207;28;20199;-61
2022/07/24 05:33:52;;;;;;;14.25;2.63;;;;;;;;;;4966537;28;20039;-60
2022/07/24 05:36:19;;;;;;;7.95;2.22;;;;;;;;;;4966979;28;20844;-61
2022/07/24 05:38:45;;;;;;;8.05;2.50;;;;;;;;;;4967525;28;20096;-62
2022/07/24 05:41:12;;;;;;;6.40;2.45;;;;;;;;;;4950381;28;20038;-61
2022/07/24 05:43:39;;;;;;;5.63;2.53;;;;;;;;;;4966386;28;20101;-61
2022/07/24 05:46:06;;;;;;;4.85;2.35;;;;;;;;;;4968646;28;20058;-61
2022/07/24 05:48:32;;;;;;;5.63;2.33;;;;;;;;;;4966444;28;20042;-61
2022/07/24 05:50:59;;;;;;;7.65;2.38;;;;;;;;;;4965740;28;22041;-61
2022/07/24 05:53:26;;;;;;;7.22;2.13;;;;;;;;;;4966556;28;20134;-61
2022/07/24 05:55:53;;;;;;;5.78;2.17;;;;;;;;;;4967026;28;20046;-60
2022/07/24 05:58:20;;;;;;;5.15;2.35;;;;;;;;;;4967155;28;20128;-61
2022/07/24 06:00:46;;;;;;;9.20;2.38;;;;;;;;;;4967973;28;20479;-61
2022/07/24 06:03:13;;;;;;;6.03;2.83;;;;;;;;;;4948762;28;20065;-61
2022/07/24 06:05:40;;;;;;;6.50;2.70;;;;;;;;;;4968054;28;20034;-61
2022/07/24 06:08:06;;;;;;;5.25;2.90;;;;;;;;;;4968167;28;20109;-61
2022/07/24 06:10:33;;;;;;;8.13;3.08;;;;;;;;;;4966767;28;20126;-61
2022/07/24 06:12:59;;;;;;;9.63;2.95;;;;;;;;;;4968401;28;20045;-61
2022/07/24 06:15:26;;;;;;;7.05;3.08;;;;;;;;;;4967589;28;20150;-61
2022/07/24 06:17:53;;;;;;;5.40;2.50;;;;;;;;;;4968168;28;20057;-61
2022/07/24 06:20:19;;;;;;;6.25;3.35;;;;;;;;;;4968081;28;20037;-61
2022/07/24 06:22:46;;;;;;;9.85;3.20;;;;;;;;;;4965760;28;20493;-60
2022/07/24 06:25:14;;;;;;;7.10;3.40;;;;;;;;;;4967492;28;20664;-59
2022/07/24 06:27:50;;;;;;;6.85;3.35;;;;;;;;;;4966291;28;20043;-61
2022/07/24 06:30:18;;;;;;;8.85;3.30;;;;;;;;;;4965160;28;20047;-61
2022/07/24 06:32:45;;;;;;;9.00;3.17;;;;;;;;;;4964993;28;20046;-61
2022/07/24 06:35:12;;;;;;;7.75;3.75;;;;;;;;;;4966891;28;20034;-61
2022/07/24 06:37:38;;;;;;;8.15;3.72;;;;;;;;;;4966354;28;20046;-61
2022/07/24 06:40:05;;;;;;;8.10;3.33;;;;;;;;;;4966895;28;20484;-61
2022/07/24 06:42:32;;;;;;;7.35;3.22;;;;;;;;;;4965589;28;20072;-61
2022/07/24 06:44:59;;;;;;;5.78;3.08;;;;;;;;;;4967254;28;20129;-61
2022/07/24 06:47:26;;;;;;;9.40;3.30;;;;;;;;;;4967410;28;20068;-61
2022/07/24 06:49:53;;;;;;;8.15;3.28;;;;;;;;;;4967229;28;20121;-61
2022/07/24 06:52:19;;;;;;;9.73;3.10;;;;;;;;;;4966725;28;20038;-61
2022/07/24 06:54:46;;;;;;;9.43;3.47;;;;;;;;;;4967841;28;20054;-61
2022/07/24 06:57:13;;;;;;;6.03;2.92;;;;;;;;;;4968165;28;20046;-61
2022/07/24 06:59:40;;;;;;;6.55;2.70;;;;;;;;;;4968284;28;20635;-60
2022/07/24 07:02:07;;;;;;;5.43;2.53;;;;;;;;;;4966697;28;20034;-60
2022/07/24 07:04:34;;;;;;;6.57;2.80;;;;;;;;;;4966326;28;20403;-62
2022/07/24 07:07:00;;;;;;;6.38;2.60;;;;;;;;;;4968218;28;20474;-61
2022/07/24 07:09:27;;;;;;;5.55;2.55;;;;;;;;;;4968008;28;20412;-62
2022/07/24 07:11:53;;;;;;;6.10;2.60;;;;;;;;;;4967157;28;20110;-60
2022/07/24 07:14:20;;;;;;;6.28;2.42;;;;;;;;;;4966657;28;20046;-61
2022/07/24 07:16:47;;;;;;;8.68;2.83;;;;;;;;;;4964872;28;20423;-62
2022/07/24 07:19:13;;;;;;;7.88;2.70;;;;;;;;;;4966866;28;20034;-62
2022/07/24 07:21:40;;;;;;;7.10;2.58;;;;;;;;;;4964031;28;20068;-62
2022/07/24 07:24:07;;;;;;;6.90;2.38;;;;;;;;;;4967191;28;20046;-60
2022/07/24 07:26:33;;;;;;;4.97;2.33;;;;;;;;;;4966206;28;20038;-62
2022/07/24 07:29:00;;;;;;;4.97;2.20;;;;;;;;;;4968028;28;20145;-61
2022/07/24 07:31:27;;;;;;;4.10;2.10;;;;;;;;;;4963757;28;20043;-61
2022/07/24 07:33:54;;;;;;;4.38;2.00;;;;;;;;;;4965845;28;20046;-60
2022/07/24 07:36:21;;;;;;;5.32;2.30;;;;;;;;;;4965887;28;20042;-59
2022/07/24 07:38:47;;;;;;;4.95;2.47;;;;;;;;;;4967136;28;20052;-59
2022/07/24 07:41:14;;;;;;;4.63;2.10;;;;;;;;;;4965454;28;20034;-59
2022/07/24 07:43:41;;;;;;;4.32;1.98;;;;;;;;;;4965729;28;20052;-60
2022/07/24 07:46:07;;;;;;;6.07;2.30;;;;;;;;;;4966450;28;20056;-60
2022/07/24 07:48:34;;;;;;;3.60;1.73;;;;;;;;;;4965222;28;20051;-61
2022/07/24 07:51:00;;;;;;;6.32;2.10;;;;;;;;;;4965050;28;20053;-61
2022/07/24 07:53:27;;;;;;;8.80;2.20;;;;;;;;;;4964753;28;20058;-59
2022/07/24 07:55:53;;;;;;;7.07;2.22;;;;;;;;;;4965646;28;20042;-60
2022/07/24 07:58:20;;;;;;;4.57;2.10;;;;;;;;;;4965545;28;20054;-58
2022/07/24 08:00:47;;;;;;;7.72;2.10;;;;;;;;;;4966185;28;20047;-58
2022/07/24 08:03:13;;;;;;;5.97;2.13;;;;;;;;;;4965583;28;20599;-59
2022/07/24 08:05:40;;;;;;;4.47;2.25;;;;;;;;;;4964356;28;20106;-60
2022/07/24 08:08:06;;;;;;;4.78;2.00;;;;;;;;;;4966191;28;20043;-60
2022/07/24 08:10:33;;;;;;;6.47;2.00;;;;;;;;;;4964932;28;20153;-60
2022/07/24 08:12:59;;;;;;;5.15;2.20;;;;;;;;;;4965142;28;20097;-60
2022/07/24 08:15:26;;;;;;;6.72;2.40;;;;;;;;;;4962926;28;20038;-58
2022/07/24 08:17:54;;;;;;;4.72;2.20;;;;;;;;;;4966470;28;20057;-59
2022/07/24 08:20:21;;;;;;;4.80;2.10;;;;;;;;;;4967707;28;20038;-60
2022/07/24 08:22:55;;;;;;;6.03;2.40;;;;;;;;;;4952537;28;20046;-59
2022/07/24 08:25:31;;;;;;;4.95;2.20;;;;;;;;;;4953637;28;20046;-62
2022/07/24 08:28:02;;;;;;;5.53;1.95;;;;;;;;;;4940427;28;20050;-59
2022/07/24 08:30:28;;;;;;;4.20;1.90;;;;;;;;;;4969329;28;20047;-60
2022/07/24 08:32:55;;;;;;;4.15;1.92;;;;;;;;;;4970844;28;20054;-59
2022/07/24 08:35:23;;;;;;;9.13;2.38;;;;;;;;;;4970180;28;20241;-60
2022/07/24 08:37:50;;;;;;;5.50;2.28;;;;;;;;;;4970009;28;20062;-59
2022/07/24 08:40:17;;;;;;;6.40;2.10;;;;;;;;;;4969296;28;20081;-59
2022/07/24 08:42:43;;;;;;;3.90;1.90;;;;;;;;;;4968136;28;20177;-59
2022/07/24 08:45:10;;;;;;;5.18;2.33;;;;;;;;;;4970259;28;20052;-62
2022/07/24 08:47:38;;;;;;;5.18;2.13;;;;;;;;;;4968474;28;20057;-58
2022/07/24 08:50:05;;;;;;;5.30;2.28;;;;;;;;;;4970158;28;20089;-59
2022/07/24 08:52:32;;;;;;;6.00;2.30;;;;;;;;;;4968183;28;20039;-60
2022/07/24 08:54:58;;;;;;;5.97;2.30;;;;;;;;;;4971262;28;20050;-59
2022/07/24 08:57:25;;;;;;;6.50;2.13;;;;;;;;;;4967811;28;20050;-60
2022/07/24 08:59:51;;;;;;;5.63;2.20;;;;;;;;;;4970002;28;20593;-59
2022/07/24 09:02:18;;;;;;;8.35;2.30;;;;;;;;;;4968270;28;20542;-60
2022/07/24 09:04:47;;;;;;;5.57;2.28;;;;;;;;;;4968724;28;20053;-59
2022/07/24 09:07:14;;;;;;;4.80;2.38;;;;;;;;;;4968089;28;20085;-60
2022/07/24 09:09:42;;;;;;;5.32;2.10;;;;;;;;;;4968906;28;20039;-60
2022/07/24 09:12:16;;;;;;;6.82;2.58;;;;;;;;;;4968851;28;20050;-60
2022/07/24 09:14:45;;;;;;;5.55;2.30;;;;;;;;;;4967913;28;20046;-60
2022/07/24 09:17:13;;;;;;;6.32;2.45;;;;;;;;;;4968286;28;20078;-59
2022/07/24 09:19:46;;;;;;;5.85;2.20;;;;;;;;;;4970920;28;20518;-60
2022/07/24 09:22:34;;;;;;;6.82;2.20;;;;;;;;;;4967285;28;20046;-59
2022/07/24 09:25:08;;;;;;;10.40;2.35;;;;;;;;;;4967324;28;20104;-60
2022/07/24 09:27:35;;;;;;;6.60;2.28;;;;;;;;;;4968956;28;20091;-60
2022/07/24 09:30:03;;;;;;;7.00;2.40;;;;;;;;;;4967436;28;20054;-61
2022/07/24 09:32:30;;;;;;;6.40;2.47;;;;;;;;;;4970257;28;20054;-60
2022/07/24 09:34:57;;;;;;;5.72;2.38;;;;;;;;;;4973007;28;20042;-60
2022/07/24 09:37:26;;;;;;;6.18;2.15;;;;;;;;;;4973223;28;20111;-61
2022/07/24 09:39:53;;;;;;;7.78;2.40;;;;;;;;;;4953907;28;20509;-60
2022/07/24 09:42:29;;;;;;;6.40;2.72;;;;;;;;;;4969427;28;20165;-60
2022/07/24 09:44:59;;;;;;;6.25;2.47;;;;;;;;;;4968415;28;20557;-60
2022/07/24 09:47:26;;;;;;;5.65;2.60;;;;;;;;;;4967046;28;20138;-60
2022/07/24 09:49:55;;;;;;;6.10;2.75;;;;;;;;;;4967555;28;20042;-60
2022/07/24 09:52:22;;;;;;;7.68;2.42;;;;;;;;;;4969358;28;20043;-59
2022/07/24 09:54:50;;;;;;;7.03;2.20;;;;;;;;;;4968697;28;20570;-60
2022/07/24 09:57:18;;;;;;;6.40;2.50;;;;;;;;;;4970118;28;20098;-60
2022/07/24 09:59:50;;;;;;;7.22;2.72;;;;;;;;;;4968240;28;20828;-59
2022/07/24 10:02:18;;;;;;;7.18;2.42;;;;;;;;;;4967855;28;20043;-59
2022/07/24 10:04:45;;;;;;;6.25;2.58;;;;;;;;;;4968458;28;20439;-60
2022/07/24 10:07:13;;;;;;;9.43;2.90;;;;;;;;;;4969494;28;20047;-61
2022/07/24 10:09:42;;;;;;;9.52;2.63;;;;;;;;;;4967257;28;20049;-61
2022/07/24 10:12:18;;;;;;;5.28;2.53;;;;;;;;;;4966722;28;20520;-61
2022/07/24 10:14:46;;;;;;;9.30;2.70;;;;;;;;;;4969519;28;20534;-60
2022/07/24 10:17:13;;;;;;;8.55;2.30;;;;;;;;;;4969015;28;20101;-59
2022/07/24 10:19:46;;;;;;;5.28;2.58;;;;;;;;;;4966815;28;20447;-60
2022/07/24 10:22:17;;;;;;;7.07;2.78;;;;;;;;;;4966992;28;20054;-60
2022/07/24 10:24:58;;;;;;;6.07;2.83;;;;;;;;;;4967967;28;20113;-60
2022/07/24 10:27:27;;;;;;;9.05;2.95;;;;;;;;;;4967617;28;20081;-59
2022/07/24 10:29:56;;;;;;;8.55;2.70;;;;;;;;;;4968322;28;20562;-60
2022/07/24 10:32:26;;;;;;;7.28;2.80;;;;;;;;;;4967224;28;20595;-60
2022/07/24 10:35:03;;;;;;;7.10;2.58;;;;;;;;;;4968039;28;20545;-59
2022/07/24 10:37:29;;;;;;;8.05;3.13;;;;;;;;;;4968589;28;20050;-60
2022/07/24 10:40:08;;;;;;;7.50;3.15;;;;;;;;;;4951975;28;20035;-60
2022/07/24 10:42:55;;;;;;;12.05;3.55;;;;;;;;;;4968405;28;20057;-60
2022/07/24 10:45:22;;;;;;;5.18;2.92;;;;;;;;;;4969875;28;20062;-59
2022/07/24 10:47:49;;;;;;;6.47;3.20;;;;;;;;;;4969138;28;20062;-60
2022/07/24 10:50:16;;;;;;;5.97;3.00;;;;;;;;;;4967848;28;20067;-60
2022/07/24 10:52:43;;;;;;;5.28;2.90;;;;;;;;;;4968711;28;20039;-60
2022/07/24 10:55:28;;;;;;;5.05;2.63;;;;;;;;;;4969578;28;20113;-59
2022/07/24 10:58:02;;;;;;;5.70;3.22;;;;;;;;;;4969469;28;20039;-59
2022/07/24 11:00:34;;;;;;;7.03;3.10;;;;;;;;;;4967162;28;20038;-59
2022/07/24 11:03:08;;;;;;;8.07;3.13;;;;;;;;;;4951833;28;20062;-60
2022/07/24 11:05:40;;;;;;;7.70;3.30;;;;;;;;;;4966890;28;20044;-60
2022/07/24 11:08:13;;;;;;;10.57;3.95;;;;;;;;;;4970664;28;20184;-59
2022/07/24 11:10:46;;;;;;;6.60;3.20;;;;;;;;;;4967436;28;20997;-60
2022/07/24 11:13:31;;;;;;;7.10;3.70;;;;;;;;;;4969632;28;20053;-60
2022/07/24 11:16:16;;;;;;;7.75;4.05;;;;;;;;;;4968071;28;20046;-60
2022/07/24 11:19:02;;;;;;;8.63;3.53;;;;;;;;;;4967513;28;20082;-59
2022/07/24 11:21:29;;;;;;;7.55;4.05;;;;;;;;;;4965063;28;20042;-59
2022/07/24 11:24:27;;;;;;;7.13;3.88;;;;;;;;;;4968732;28;20073;-60
2022/07/24 11:26:56;;;;;;;8.55;3.80;;;;;;;;;;4952208;28;20035;-60
2022/07/24 11:29:26;;;;;;;6.57;3.95;;;;;;;;;;4965102;28;20046;-60
2022/07/24 11:31:57;;;;;;;8.30;3.67;;;;;;;;;;4966750;28;20090;-60
2022/07/24 11:34:24;;;;;;;9.45;3.95;;;;;;;;;;4965671;28;20039;-60
2022/07/24 11:36:52;;;;;;;8.07;4.10;;;;;;;;;;4966878;28;20038;-59
2022/07/24 11:39:19;;;;;;;8.20;3.67;;;;;;;;;;4966565;28;20035;-60
2022/07/24 11:41:46;;;;;;;10.55;3.20;;;;;;;;;;4964253;28;20442;-61
2022/07/24 11:44:13;;;;;;;12.38;3.83;;;;;;;;;;4965636;28;20950;-60
2022/07/24 11:46:40;;;;;;;7.32;3.80;;;;;;;;;;4966165;28;20046;-61
2022/07/24 11:49:08;;;;;;;11.95;4.03;;;;;;;;;;4967773;28;20042;-60
2022/07/24 11:51:45;;;;;;;9.38;3.70;;;;;;;;;;4965575;28;20042;-61
2022/07/24 11:54:12;;;;;;;10.15;3.72;;;;;;;;;;4969308;28;20212;-61
2022/07/24 11:56:39;;;;;;;8.15;3.97;;;;;;;;;;4969965;28;20066;-62
2022/07/24 11:59:05;;;;;;;8.23;4.03;;;;;;;;;;4969837;28;20051;-61
2022/07/24 12:01:32;;;;;;;7.80;3.70;;;;;;;;;;4969091;28;20035;-61
2022/07/24 12:04:00;;;;;;;7.55;3.65;;;;;;;;;;4969291;28;21773;-61
2022/07/24 12:06:28;;;;;;;11.02;3.85;;;;;;;;;;4969611;28;20210;-60
2022/07/24 12:09:07;;;;;;;10.80;3.65;;;;;;;;;;4970012;28;20038;-61
2022/07/24 12:11:37;;;;;;;6.90;3.50;;;;;;;;;;4969775;28;20035;-61
2022/07/24 12:14:14;;;;;;;5.95;3.30;;;;;;;;;;4970172;28;20408;-61
2022/07/24 12:16:41;;;;;;;13.57;3.80;;;;;;;;;;4970085;28;20042;-62
2022/07/24 12:19:18;;;;;;;6.18;3.60;;;;;;;;;;4970165;28;20053;-61
2022/07/24 12:21:46;;;;;;;6.97;4.03;;;;;;;;;;4967964;28;20073;-61
2022/07/24 12:24:12;;;;;;;12.50;4.00;;;;;;;;;;4971555;28;20050;-62
2022/07/24 12:26:59;;;;;;;6.50;3.65;;;;;;;;;;4952131;28;20046;-62
2022/07/24 12:29:26;;;;;;;8.50;3.92;;;;;;;;;;4968838;28;20936;-61
2022/07/24 12:31:54;;;;;;;7.07;3.67;;;;;;;;;;4969676;28;20090;-62
2022/07/24 12:34:21;;;;;;;7.55;3.53;;;;;;;;;;4969164;28;21197;-61
2022/07/24 12:36:47;;;;;;;6.78;3.75;;;;;;;;;;4970757;28;20066;-61
2022/07/24 12:39:14;;;;;;;9.07;3.70;;;;;;;;;;4969728;28;20122;-63
2022/07/24 12:41:47;;;;;;;7.45;3.70;;;;;;;;;;4969425;28;20047;-62
2022/07/24 12:44:13;;;;;;;;;;;;;;;;;;4969655;28;20201;-61
2022/07/24 12:46:41;;;;;;;10.60;3.97;;;;;;;;;;4968156;28;19968;-61
2022/07/24 12:49:09;;;;;;;8.90;3.53;;;;;;;;;;4968803;28;20042;-61
2022/07/24 12:51:51;;;;;;;8.85;3.85;;;;;;;;;;4968557;28;20047;-62
2022/07/24 12:54:28;;;;;;;6.97;3.92;;;;;;;;;;4971923;28;20055;-62
2022/07/24 12:56:56;;;;;;;8.57;3.67;;;;;;;;;;4969731;28;20202;-61
2022/07/24 12:59:24;;;;;;;6.88;3.90;;;;;;;;;;4968725;28;20047;-62
2022/07/24 13:01:59;;;;;;;8.05;4.15;;;;;;;;;;4969516;28;20038;-60
2022/07/24 13:04:26;;;;;;;7.63;4.43;;;;;;;;;;4969549;28;20149;-61
2022/07/24 13:06:54;;;;;;;6.78;3.85;;;;;;;;;;4970318;28;20046;-61
2022/07/24 13:09:21;;;;;;;12.05;4.10;;;;;;;;;;4951588;28;20050;-60
2022/07/24 13:11:49;;;;;;;6.32;3.50;;;;;;;;;;4969573;28;20077;-58
2022/07/24 13:14:16;;;;;;;7.30;3.88;;;;;;;;;;4972464;28;20494;-61
2022/07/24 13:16:44;;;;;;;6.68;3.50;;;;;;;;;;4969762;28;20435;-61
2022/07/24 13:19:11;;;;;;;7.47;3.63;;;;;;;;;;4970591;28;20050;-61
2022/07/24 13:21:39;;;;;;;8.00;3.75;;;;;;;;;;4969874;28;20039;-61
2022/07/24 13:24:06;;;;;;;5.93;3.50;;;;;;;;;;4972089;28;20035;-60
2022/07/24 13:26:32;;;;;;;9.70;4.25;;;;;;;;;;4969296;28;20085;-62
2022/07/24 13:28:59;;;;;;;6.88;3.55;;;;;;;;;;4973879;28;20035;-63
2022/07/24 13:31:26;;;;;;;7.57;3.40;;;;;;;;;;4971371;28;20632;-61
2022/07/24 13:33:52;;;;;;;7.18;3.47;;;;;;;;;;4955607;28;20047;-60
2022/07/24 13:36:19;;;;;;;5.95;3.50;;;;;;;;;;4974659;28;20045;-61
2022/07/24 13:38:46;;;;;;;8.45;3.55;;;;;;;;;;4958374;28;20114;-60
2022/07/24 13:41:13;;;;;;;7.85;3.83;;;;;;;;;;4975454;28;20805;-59
2022/07/24 13:43:40;;;;;;;10.30;3.70;;;;;;;;;;4972238;28;20748;-58
2022/07/24 13:46:07;;;;;;;5.47;3.30;;;;;;;;;;4968495;28;20054;-60
2022/07/24 13:48:33;;;;;;;6.38;3.30;;;;;;;;;;4967401;28;20038;-58
2022/07/24 13:51:00;;;;;;;8.02;3.17;;;;;;;;;;4966560;28;20042;-61
2022/07/24 13:53:26;;;;;;;6.18;3.08;;;;;;;;;;4967206;28;20527;-59
2022/07/24 13:55:53;;;;;;;5.18;2.92;;;;;;;;;;4966897;28;20039;-61
2022/07/24 13:58:19;;;;;;;5.60;3.05;;;;;;;;;;4967152;28;20067;-61
2022/07/24 14:00:46;;;;;;;5.15;3.03;;;;;;;;;;4965778;28;20038;-61
2022/07/24 14:03:12;;;;;;;6.95;3.03;;;;;;;;;;4966588;28;20086;-61
2022/07/24 14:05:39;;;;;;;5.95;3.15;;;;;;;;;;4948793;28;20445;-59
2022/07/24 14:08:06;;;;;;;9.25;3.33;;;;;;;;;;4967120;28;20062;-63
2022/07/24 14:10:32;;;;;;;6.03;3.53;;;;;;;;;;4965041;28;20046;-58
2022/07/24 14:12:59;;;;;;;5.82;3.75;;;;;;;;;;4966702;28;20046;-58
2022/07/24 14:15:26;;;;;;;6.13;3.00;;;;;;;;;;4967062;28;20062;-58
2022/07/24 14:17:53;;;;;;;5.57;3.28;;;;;;;;;;4966051;28;20061;-59
2022/07/24 14:20:20;;;;;;;5.55;3.05;;;;;;;;;;4965797;28;20153;-58
2022/07/24 14:22:46;;;;;;;11.10;3.13;;;;;;;;;;4965516;28;20126;-58
2022/07/24 14:25:13;;;;;;;5.82;3.00;;;;;;;;;;4967030;28;20049;-59
2022/07/24 14:27:40;;;;;;;5.85;2.95;;;;;;;;;;4966849;28;20058;-59
2022/07/24 14:30:07;;;;;;;6.32;3.08;;;;;;;;;;4966218;28;20053;-58
2022/07/24 14:32:34;;;;;;;7.97;2.80;;;;;;;;;;4967388;28;20047;-58
2022/07/24 14:35:01;;;;;;;4.60;2.42;;;;;;;;;;4966632;28;20057;-59
2022/07/24 14:37:28;;;;;;;6.15;3.08;;;;;;;;;;4966161;28;20082;-58
2022/07/24 14:39:54;;;;;;;5.78;2.50;;;;;;;;;;4964681;28;20046;-58
2022/07/24 14:42:21;;;;;;;5.57;3.00;;;;;;;;;;4965273;28;20042;-59
2022/07/24 14:44:47;;;;;;;5.28;2.85;;;;;;;;;;4966381;28;20126;-59
2022/07/24 14:47:14;;;;;;;5.18;2.70;;;;;;;;;;4967166;28;20054;-58